sensor_id;sensor_type;location;lat;lon;timestamp;P1;durP1;ratioP1;P2;durP2;ratioP2
18857;SDS011;9558;50.178;8.370;2022-10-16T00:01:06;1.30;;;1.13;;
18857;SDS011;9558;50.178;8.370;2022-10-16T00:03:34;1.90;;;1.20;;
18857;SDS011;9558;50.178;8.370;2022-10-16T00:08:27;1.35;;;1.05;;
18857;SDS011;9558;50.178;8.370;2022-10-16T00:10:59;1.38;;;1.05;;
18857;SDS011;9558;50.178;8.370;2022-10-16T00:13:26;2.13;;;1.05;;
18857;SDS011;9558;50.178;8.370;2022-10-16T00:15:54;1.00;;;0.90;;
18857;SDS011;9558;50.178;8.370;2022-10-16T00:18:21;1.63;;;1.05;;
18857;SDS011;9558;50.178;8.370;2022-10-16T00:20:48;1.17;;;1.00;;
18857;SDS011;9558;50.178;8.370;2022-10-16T00:23:14;1.30;;;1.00;;
18857;SDS011;9558;50.178;8.370;2022-10-16T00:25:41;1.08;;;0.93;;
18857;SDS011;9558;50.178;8.370;2022-10-16T00:28:08;1.30;;;0.80;;
18857;SDS011;9558;50.178;8.370;2022-10-16T00:30:37;0.75;;;0.75;;
18857;SDS011;9558;50.178;8.370;2022-10-16T00:33:03;5.47;;;1.10;;
18857;SDS011;9558;50.178;8.370;2022-10-16T00:35:30;2.50;;;1.20;;
18857;SDS011;9558;50.178;8.370;2022-10-16T00:37:57;2.15;;;1.08;;
18857;SDS011;9558;50.178;8.370;2022-10-16T00:40:23;1.45;;;1.30;;
18857;SDS011;9558;50.178;8.370;2022-10-16T00:42:50;1.27;;;1.00;;
18857;SDS011;9558;50.178;8.370;2022-10-16T00:45:18;1.63;;;1.25;;
18857;SDS011;9558;50.178;8.370;2022-10-16T00:47:45;1.25;;;1.10;;
18857;SDS011;9558;50.178;8.370;2022-10-16T00:50:16;3.53;;;1.40;;
18857;SDS011;9558;50.178;8.370;2022-10-16T00:52:45;3.25;;;1.30;;
18857;SDS011;9558;50.178;8.370;2022-10-16T00:55:14;4.70;;;1.35;;
18857;SDS011;9558;50.178;8.370;2022-10-16T00:57:40;2.28;;;1.33;;
18857;SDS011;9558;50.178;8.370;2022-10-16T01:00:09;4.45;;;1.65;;
18857;SDS011;9558;50.178;8.370;2022-10-16T01:02:38;2.75;;;1.65;;
18857;SDS011;9558;50.178;8.370;2022-10-16T01:05:05;3.60;;;1.50;;
18857;SDS011;9558;50.178;8.370;2022-10-16T01:07:34;0.63;;;0.63;;
18857;SDS011;9558;50.178;8.370;2022-10-16T01:10:09;1.00;;;0.77;;
18857;SDS011;9558;50.178;8.370;2022-10-16T01:12:45;1.90;;;1.23;;
18857;SDS011;9558;50.178;8.370;2022-10-16T01:15:17;1.40;;;1.10;;
18857;SDS011;9558;50.178;8.370;2022-10-16T01:17:51;1.83;;;1.40;;
18857;SDS011;9558;50.178;8.370;2022-10-16T01:20:25;1.75;;;1.27;;
18857;SDS011;9558;50.178;8.370;2022-10-16T01:22:57;2.17;;;1.30;;
18857;SDS011;9558;50.178;8.370;2022-10-16T01:25:31;1.58;;;1.27;;
18857;SDS011;9558;50.178;8.370;2022-10-16T01:28:13;5.05;;;1.30;;
18857;SDS011;9558;50.178;8.370;2022-10-16T01:30:43;3.22;;;1.50;;
18857;SDS011;9558;50.178;8.370;2022-10-16T01:33:13;2.10;;;1.45;;
18857;SDS011;9558;50.178;8.370;2022-10-16T01:35:44;1.58;;;1.35;;
18857;SDS011;9558;50.178;8.370;2022-10-16T01:38:15;3.60;;;1.70;;
18857;SDS011;9558;50.178;8.370;2022-10-16T01:40:46;2.08;;;1.60;;
18857;SDS011;9558;50.178;8.370;2022-10-16T01:43:19;1.80;;;1.40;;
18857;SDS011;9558;50.178;8.370;2022-10-16T01:45:49;5.35;;;1.50;;
18857;SDS011;9558;50.178;8.370;2022-10-16T01:48:18;1.92;;;1.50;;
18857;SDS011;9558;50.178;8.370;2022-10-16T01:50:50;1.33;;;1.23;;
18857;SDS011;9558;50.178;8.370;2022-10-16T01:53:21;1.73;;;1.58;;
18857;SDS011;9558;50.178;8.370;2022-10-16T01:55:49;2.08;;;1.52;;
18857;SDS011;9558;50.178;8.370;2022-10-16T01:58:22;1.75;;;1.60;;
18857;SDS011;9558;50.178;8.370;2022-10-16T02:00:51;1.95;;;1.40;;
18857;SDS011;9558;50.178;8.370;2022-10-16T02:03:20;2.15;;;1.60;;
18857;SDS011;9558;50.178;8.370;2022-10-16T02:05:48;1.67;;;1.23;;
18857;SDS011;9558;50.178;8.370;2022-10-16T02:08:19;1.73;;;1.45;;
18857;SDS011;9558;50.178;8.370;2022-10-16T02:10:47;1.80;;;1.58;;
18857;SDS011;9558;50.178;8.370;2022-10-16T02:13:20;2.85;;;1.77;;
18857;SDS011;9558;50.178;8.370;2022-10-16T02:15:52;2.55;;;1.70;;
18857;SDS011;9558;50.178;8.370;2022-10-16T02:18:18;2.33;;;1.63;;
18857;SDS011;9558;50.178;8.370;2022-10-16T02:20:49;1.77;;;1.45;;
18857;SDS011;9558;50.178;8.370;2022-10-16T02:23:19;2.47;;;1.85;;
18857;SDS011;9558;50.178;8.370;2022-10-16T02:25:54;1.92;;;1.38;;
18857;SDS011;9558;50.178;8.370;2022-10-16T02:28:26;2.08;;;1.50;;
18857;SDS011;9558;50.178;8.370;2022-10-16T02:31:00;4.03;;;1.77;;
18857;SDS011;9558;50.178;8.370;2022-10-16T02:33:29;2.20;;;1.55;;
18857;SDS011;9558;50.178;8.370;2022-10-16T02:35:58;2.35;;;1.52;;
18857;SDS011;9558;50.178;8.370;2022-10-16T02:38:25;1.92;;;1.40;;
18857;SDS011;9558;50.178;8.370;2022-10-16T02:40:52;2.10;;;1.80;;
18857;SDS011;9558;50.178;8.370;2022-10-16T02:43:19;2.28;;;1.55;;
18857;SDS011;9558;50.178;8.370;2022-10-16T02:45:47;1.42;;;1.23;;
18857;SDS011;9558;50.178;8.370;2022-10-16T02:48:13;2.33;;;1.90;;
18857;SDS011;9558;50.178;8.370;2022-10-16T02:50:40;3.10;;;1.80;;
18857;SDS011;9558;50.178;8.370;2022-10-16T02:53:06;1.92;;;1.75;;
18857;SDS011;9558;50.178;8.370;2022-10-16T02:55:33;4.18;;;1.88;;
18857;SDS011;9558;50.178;8.370;2022-10-16T02:57:59;2.17;;;1.70;;
18857;SDS011;9558;50.178;8.370;2022-10-16T03:00:26;5.32;;;1.52;;
18857;SDS011;9558;50.178;8.370;2022-10-16T03:02:53;2.70;;;1.95;;
18857;SDS011;9558;50.178;8.370;2022-10-16T03:05:20;1.95;;;1.25;;
18857;SDS011;9558;50.178;8.370;2022-10-16T03:07:46;3.20;;;1.25;;
18857;SDS011;9558;50.178;8.370;2022-10-16T03:10:13;1.90;;;1.25;;
18857;SDS011;9558;50.178;8.370;2022-10-16T03:12:39;1.40;;;1.08;;
18857;SDS011;9558;50.178;8.370;2022-10-16T03:15:06;2.25;;;1.20;;
18857;SDS011;9558;50.178;8.370;2022-10-16T03:17:33;2.60;;;1.63;;
18857;SDS011;9558;50.178;8.370;2022-10-16T03:20:01;2.67;;;1.73;;
18857;SDS011;9558;50.178;8.370;2022-10-16T03:22:28;5.15;;;1.75;;
18857;SDS011;9558;50.178;8.370;2022-10-16T03:24:55;1.50;;;1.40;;
18857;SDS011;9558;50.178;8.370;2022-10-16T03:27:22;2.95;;;1.85;;
18857;SDS011;9558;50.178;8.370;2022-10-16T03:29:48;1.92;;;1.70;;
18857;SDS011;9558;50.178;8.370;2022-10-16T03:32:14;2.20;;;1.95;;
18857;SDS011;9558;50.178;8.370;2022-10-16T03:34:41;2.25;;;1.75;;
18857;SDS011;9558;50.178;8.370;2022-10-16T03:37:09;1.80;;;1.58;;
18857;SDS011;9558;50.178;8.370;2022-10-16T03:39:35;1.55;;;1.38;;
18857;SDS011;9558;50.178;8.370;2022-10-16T03:42:02;1.52;;;1.02;;
18857;SDS011;9558;50.178;8.370;2022-10-16T03:44:28;1.42;;;1.15;;
18857;SDS011;9558;50.178;8.370;2022-10-16T03:46:55;1.58;;;1.23;;
18857;SDS011;9558;50.178;8.370;2022-10-16T03:49:21;1.52;;;1.17;;
18857;SDS011;9558;50.178;8.370;2022-10-16T03:51:48;1.40;;;1.00;;
18857;SDS011;9558;50.178;8.370;2022-10-16T03:54:15;2.60;;;1.55;;
18857;SDS011;9558;50.178;8.370;2022-10-16T03:56:42;1.70;;;1.60;;
18857;SDS011;9558;50.178;8.370;2022-10-16T03:59:09;1.65;;;1.30;;
18857;SDS011;9558;50.178;8.370;2022-10-16T04:01:35;7.22;;;1.92;;
18857;SDS011;9558;50.178;8.370;2022-10-16T04:04:01;3.55;;;1.60;;
18857;SDS011;9558;50.178;8.370;2022-10-16T04:06:28;1.90;;;1.67;;
18857;SDS011;9558;50.178;8.370;2022-10-16T04:08:54;4.13;;;2.10;;
18857;SDS011;9558;50.178;8.370;2022-10-16T04:11:22;1.88;;;1.17;;
18857;SDS011;9558;50.178;8.370;2022-10-16T04:13:49;1.58;;;1.35;;
18857;SDS011;9558;50.178;8.370;2022-10-16T04:16:15;2.58;;;1.70;;
18857;SDS011;9558;50.178;8.370;2022-10-16T04:18:42;2.03;;;1.60;;
18857;SDS011;9558;50.178;8.370;2022-10-16T04:21:08;1.98;;;1.52;;
18857;SDS011;9558;50.178;8.370;2022-10-16T04:23:34;2.72;;;1.60;;
18857;SDS011;9558;50.178;8.370;2022-10-16T04:26:01;3.10;;;1.50;;
18857;SDS011;9558;50.178;8.370;2022-10-16T04:28:29;1.83;;;1.40;;
18857;SDS011;9558;50.178;8.370;2022-10-16T04:30:56;2.13;;;1.40;;
18857;SDS011;9558;50.178;8.370;2022-10-16T04:33:22;1.80;;;1.33;;
18857;SDS011;9558;50.178;8.370;2022-10-16T04:35:55;1.48;;;1.15;;
18857;SDS011;9558;50.178;8.370;2022-10-16T04:38:22;2.95;;;1.90;;
18857;SDS011;9558;50.178;8.370;2022-10-16T04:40:49;3.35;;;1.65;;
18857;SDS011;9558;50.178;8.370;2022-10-16T04:43:15;2.20;;;1.83;;
18857;SDS011;9558;50.178;8.370;2022-10-16T04:45:43;1.45;;;1.15;;
18857;SDS011;9558;50.178;8.370;2022-10-16T04:48:10;1.92;;;1.65;;
18857;SDS011;9558;50.178;8.370;2022-10-16T04:50:37;3.58;;;1.27;;
18857;SDS011;9558;50.178;8.370;2022-10-16T04:53:03;2.15;;;1.85;;
18857;SDS011;9558;50.178;8.370;2022-10-16T04:55:29;3.45;;;1.95;;
18857;SDS011;9558;50.178;8.370;2022-10-16T04:57:56;3.50;;;1.52;;
18857;SDS011;9558;50.178;8.370;2022-10-16T05:00:22;2.63;;;1.65;;
18857;SDS011;9558;50.178;8.370;2022-10-16T05:02:50;2.13;;;1.20;;
18857;SDS011;9558;50.178;8.370;2022-10-16T05:05:17;2.67;;;1.55;;
18857;SDS011;9558;50.178;8.370;2022-10-16T05:07:44;1.95;;;1.55;;
18857;SDS011;9558;50.178;8.370;2022-10-16T05:10:10;1.90;;;1.63;;
18857;SDS011;9558;50.178;8.370;2022-10-16T05:12:37;1.77;;;1.65;;
18857;SDS011;9558;50.178;8.370;2022-10-16T05:15:04;3.55;;;1.55;;
18857;SDS011;9558;50.178;8.370;2022-10-16T05:17:31;2.15;;;1.80;;
18857;SDS011;9558;50.178;8.370;2022-10-16T05:19:59;3.05;;;1.70;;
18857;SDS011;9558;50.178;8.370;2022-10-16T05:22:25;3.85;;;1.92;;
18857;SDS011;9558;50.178;8.370;2022-10-16T05:24:52;2.17;;;1.67;;
18857;SDS011;9558;50.178;8.370;2022-10-16T05:27:18;3.15;;;2.00;;
18857;SDS011;9558;50.178;8.370;2022-10-16T05:29:45;2.75;;;1.80;;
18857;SDS011;9558;50.178;8.370;2022-10-16T05:32:12;1.95;;;1.58;;
18857;SDS011;9558;50.178;8.370;2022-10-16T05:34:39;1.98;;;1.50;;
18857;SDS011;9558;50.178;8.370;2022-10-16T05:37:06;1.83;;;1.50;;
18857;SDS011;9558;50.178;8.370;2022-10-16T05:39:33;1.98;;;1.27;;
18857;SDS011;9558;50.178;8.370;2022-10-16T05:42:00;2.55;;;1.50;;
18857;SDS011;9558;50.178;8.370;2022-10-16T05:44:26;3.13;;;1.98;;
18857;SDS011;9558;50.178;8.370;2022-10-16T05:46:53;4.78;;;1.90;;
18857;SDS011;9558;50.178;8.370;2022-10-16T05:49:20;2.85;;;1.83;;
18857;SDS011;9558;50.178;8.370;2022-10-16T05:51:46;2.70;;;1.73;;
18857;SDS011;9558;50.178;8.370;2022-10-16T05:54:14;2.10;;;1.58;;
18857;SDS011;9558;50.178;8.370;2022-10-16T05:56:40;3.58;;;1.98;;
18857;SDS011;9558;50.178;8.370;2022-10-16T05:59:07;4.97;;;2.25;;
18857;SDS011;9558;50.178;8.370;2022-10-16T06:01:34;1.95;;;1.58;;
18857;SDS011;9558;50.178;8.370;2022-10-16T06:04:00;3.85;;;2.10;;
18857;SDS011;9558;50.178;8.370;2022-10-16T06:06:27;2.80;;;1.98;;
18857;SDS011;9558;50.178;8.370;2022-10-16T06:08:55;4.05;;;2.35;;
18857;SDS011;9558;50.178;8.370;2022-10-16T06:11:24;6.43;;;2.10;;
18857;SDS011;9558;50.178;8.370;2022-10-16T06:13:52;3.00;;;2.22;;
18857;SDS011;9558;50.178;8.370;2022-10-16T06:16:21;3.35;;;2.38;;
18857;SDS011;9558;50.178;8.370;2022-10-16T06:18:50;5.93;;;1.85;;
18857;SDS011;9558;50.178;8.370;2022-10-16T06:21:17;3.17;;;2.08;;
18857;SDS011;9558;50.178;8.370;2022-10-16T06:23:45;3.35;;;1.70;;
18857;SDS011;9558;50.178;8.370;2022-10-16T06:26:13;1.50;;;1.13;;
18857;SDS011;9558;50.178;8.370;2022-10-16T06:28:42;1.23;;;1.13;;
18857;SDS011;9558;50.178;8.370;2022-10-16T06:31:10;4.85;;;1.40;;
18857;SDS011;9558;50.178;8.370;2022-10-16T06:33:38;1.92;;;1.25;;
18857;SDS011;9558;50.178;8.370;2022-10-16T06:36:06;1.50;;;1.25;;
18857;SDS011;9558;50.178;8.370;2022-10-16T06:38:33;2.15;;;1.77;;
18857;SDS011;9558;50.178;8.370;2022-10-16T06:41:01;1.95;;;1.30;;
18857;SDS011;9558;50.178;8.370;2022-10-16T06:43:28;1.65;;;1.00;;
18857;SDS011;9558;50.178;8.370;2022-10-16T06:45:58;1.35;;;1.20;;
18857;SDS011;9558;50.178;8.370;2022-10-16T06:48:26;1.30;;;1.00;;
18857;SDS011;9558;50.178;8.370;2022-10-16T06:50:57;1.70;;;0.80;;
18857;SDS011;9558;50.178;8.370;2022-10-16T06:53:25;1.10;;;1.00;;
18857;SDS011;9558;50.178;8.370;2022-10-16T06:55:53;1.00;;;0.90;;
18857;SDS011;9558;50.178;8.370;2022-10-16T06:58:20;0.80;;;0.80;;
18857;SDS011;9558;50.178;8.370;2022-10-16T07:00:46;2.50;;;1.52;;
18857;SDS011;9558;50.178;8.370;2022-10-16T07:03:14;1.48;;;1.00;;
18857;SDS011;9558;50.178;8.370;2022-10-16T07:05:41;2.60;;;0.82;;
18857;SDS011;9558;50.178;8.370;2022-10-16T07:08:08;1.42;;;1.10;;
18857;SDS011;9558;50.178;8.370;2022-10-16T07:10:35;2.78;;;1.00;;
18857;SDS011;9558;50.178;8.370;2022-10-16T07:13:02;1.17;;;1.08;;
18857;SDS011;9558;50.178;8.370;2022-10-16T07:15:28;1.45;;;1.00;;
18857;SDS011;9558;50.178;8.370;2022-10-16T07:17:55;2.13;;;0.93;;
18857;SDS011;9558;50.178;8.370;2022-10-16T07:20:22;3.00;;;1.60;;
18857;SDS011;9558;50.178;8.370;2022-10-16T07:22:49;1.02;;;0.93;;
18857;SDS011;9558;50.178;8.370;2022-10-16T07:25:16;0.60;;;0.60;;
18857;SDS011;9558;50.178;8.370;2022-10-16T07:27:42;1.13;;;1.02;;
18857;SDS011;9558;50.178;8.370;2022-10-16T07:30:09;1.75;;;1.45;;
18857;SDS011;9558;50.178;8.370;2022-10-16T07:32:36;1.45;;;1.20;;
18857;SDS011;9558;50.178;8.370;2022-10-16T07:35:03;1.23;;;1.13;;
18857;SDS011;9558;50.178;8.370;2022-10-16T07:39:58;1.13;;;0.88;;
18857;SDS011;9558;50.178;8.370;2022-10-16T07:42:24;1.38;;;1.27;;
18857;SDS011;9558;50.178;8.370;2022-10-16T07:44:50;2.42;;;1.35;;
18857;SDS011;9558;50.178;8.370;2022-10-16T07:47:17;0.80;;;0.80;;
18857;SDS011;9558;50.178;8.370;2022-10-16T07:49:43;2.03;;;1.25;;
18857;SDS011;9558;50.178;8.370;2022-10-16T07:52:10;1.92;;;1.45;;
18857;SDS011;9558;50.178;8.370;2022-10-16T07:54:38;1.50;;;1.25;;
18857;SDS011;9558;50.178;8.370;2022-10-16T07:57:04;2.20;;;1.80;;
18857;SDS011;9558;50.178;8.370;2022-10-16T07:59:31;1.98;;;1.77;;
18857;SDS011;9558;50.178;8.370;2022-10-16T08:01:57;1.95;;;1.15;;
18857;SDS011;9558;50.178;8.370;2022-10-16T08:04:23;2.33;;;1.83;;
18857;SDS011;9558;50.178;8.370;2022-10-16T08:06:50;1.92;;;1.48;;
18857;SDS011;9558;50.178;8.370;2022-10-16T08:09:17;2.00;;;1.25;;
18857;SDS011;9558;50.178;8.370;2022-10-16T08:11:44;1.83;;;1.40;;
18857;SDS011;9558;50.178;8.370;2022-10-16T08:14:11;1.55;;;1.45;;
18857;SDS011;9558;50.178;8.370;2022-10-16T08:16:37;1.98;;;1.42;;
18857;SDS011;9558;50.178;8.370;2022-10-16T08:19:04;1.63;;;1.27;;
18857;SDS011;9558;50.178;8.370;2022-10-16T08:21:30;1.50;;;1.20;;
18857;SDS011;9558;50.178;8.370;2022-10-16T08:23:57;2.78;;;1.50;;
18857;SDS011;9558;50.178;8.370;2022-10-16T08:26:24;1.80;;;1.48;;
18857;SDS011;9558;50.178;8.370;2022-10-16T08:28:53;1.20;;;1.10;;
18857;SDS011;9558;50.178;8.370;2022-10-16T08:31:19;1.67;;;1.20;;
18857;SDS011;9558;50.178;8.370;2022-10-16T08:38:40;1.42;;;1.20;;
18857;SDS011;9558;50.178;8.370;2022-10-16T08:41:16;1.85;;;1.30;;
18857;SDS011;9558;50.178;8.370;2022-10-16T08:43:58;4.18;;;1.90;;
18857;SDS011;9558;50.178;8.370;2022-10-16T08:46:41;3.25;;;1.88;;
18857;SDS011;9558;50.178;8.370;2022-10-16T08:49:14;3.75;;;2.15;;
18857;SDS011;9558;50.178;8.370;2022-10-16T08:51:41;2.33;;;1.83;;
18857;SDS011;9558;50.178;8.370;2022-10-16T08:54:12;2.38;;;1.58;;
18857;SDS011;9558;50.178;8.370;2022-10-16T08:56:49;3.60;;;2.08;;
18857;SDS011;9558;50.178;8.370;2022-10-16T08:59:17;4.22;;;1.88;;
18857;SDS011;9558;50.178;8.370;2022-10-16T09:01:45;2.58;;;1.80;;
18857;SDS011;9558;50.178;8.370;2022-10-16T09:04:24;2.72;;;1.77;;
18857;SDS011;9558;50.178;8.370;2022-10-16T09:07:13;4.38;;;2.25;;
18857;SDS011;9558;50.178;8.370;2022-10-16T09:09:55;3.85;;;2.70;;
18857;SDS011;9558;50.178;8.370;2022-10-16T09:12:37;4.32;;;2.78;;
18857;SDS011;9558;50.178;8.370;2022-10-16T09:15:14;3.08;;;2.42;;
18857;SDS011;9558;50.178;8.370;2022-10-16T09:17:53;2.85;;;1.90;;
18857;SDS011;9558;50.178;8.370;2022-10-16T09:20:28;3.70;;;2.20;;
18857;SDS011;9558;50.178;8.370;2022-10-16T09:23:07;3.75;;;2.20;;
18857;SDS011;9558;50.178;8.370;2022-10-16T09:25:38;3.83;;;2.03;;
18857;SDS011;9558;50.178;8.370;2022-10-16T09:28:07;2.95;;;2.20;;
18857;SDS011;9558;50.178;8.370;2022-10-16T09:30:36;3.85;;;1.90;;
18857;SDS011;9558;50.178;8.370;2022-10-16T09:33:03;3.67;;;2.60;;
18857;SDS011;9558;50.178;8.370;2022-10-16T09:35:31;7.78;;;4.28;;
18857;SDS011;9558;50.178;8.370;2022-10-16T09:38:02;2.50;;;1.85;;
18857;SDS011;9558;50.178;8.370;2022-10-16T09:40:30;1.58;;;1.23;;
18857;SDS011;9558;50.178;8.370;2022-10-16T09:43:01;1.25;;;1.00;;
18857;SDS011;9558;50.178;8.370;2022-10-16T09:45:32;1.40;;;0.95;;
18857;SDS011;9558;50.178;8.370;2022-10-16T09:48:02;1.48;;;1.20;;
18857;SDS011;9558;50.178;8.370;2022-10-16T09:50:37;2.75;;;1.00;;
18857;SDS011;9558;50.178;8.370;2022-10-16T09:53:04;4.57;;;1.30;;
18857;SDS011;9558;50.178;8.370;2022-10-16T09:55:31;1.13;;;1.00;;
18857;SDS011;9558;50.178;8.370;2022-10-16T09:57:58;1.35;;;1.25;;
18857;SDS011;9558;50.178;8.370;2022-10-16T10:00:24;2.78;;;1.67;;
18857;SDS011;9558;50.178;8.370;2022-10-16T10:02:51;1.60;;;1.50;;
18857;SDS011;9558;50.178;8.370;2022-10-16T10:05:21;1.98;;;1.35;;
18857;SDS011;9558;50.178;8.370;2022-10-16T10:07:54;1.48;;;1.30;;
18857;SDS011;9558;50.178;8.370;2022-10-16T10:10:23;1.42;;;1.20;;
18857;SDS011;9558;50.178;8.370;2022-10-16T10:12:52;1.63;;;1.52;;
18857;SDS011;9558;50.178;8.370;2022-10-16T10:15:18;1.25;;;1.00;;
18857;SDS011;9558;50.178;8.370;2022-10-16T10:17:47;1.60;;;1.10;;
18857;SDS011;9558;50.178;8.370;2022-10-16T10:20:22;0.80;;;0.70;;
18857;SDS011;9558;50.178;8.370;2022-10-16T10:22:50;0.93;;;0.93;;
18857;SDS011;9558;50.178;8.370;2022-10-16T10:25:29;0.68;;;0.68;;
18857;SDS011;9558;50.178;8.370;2022-10-16T10:31:06;0.73;;;0.60;;
18857;SDS011;9558;50.178;8.370;2022-10-16T10:36:13;0.63;;;0.63;;
18857;SDS011;9558;50.178;8.370;2022-10-16T10:38:49;1.00;;;0.90;;
18857;SDS011;9558;50.178;8.370;2022-10-16T10:41:27;0.68;;;0.68;;
18857;SDS011;9558;50.178;8.370;2022-10-16T10:44:07;0.70;;;0.70;;
18857;SDS011;9558;50.178;8.370;2022-10-16T10:46:44;0.82;;;0.82;;
18857;SDS011;9558;50.178;8.370;2022-10-16T10:49:26;1.05;;;0.95;;
18857;SDS011;9558;50.178;8.370;2022-10-16T10:52:08;1.15;;;0.77;;
18857;SDS011;9558;50.178;8.370;2022-10-16T10:54:49;1.23;;;0.90;;
18857;SDS011;9558;50.178;8.370;2022-10-16T10:57:25;2.05;;;1.23;;
18857;SDS011;9558;50.178;8.370;2022-10-16T10:59:58;1.20;;;1.10;;
18857;SDS011;9558;50.178;8.370;2022-10-16T11:02:35;1.30;;;1.10;;
18857;SDS011;9558;50.178;8.370;2022-10-16T11:05:15;1.45;;;1.02;;
18857;SDS011;9558;50.178;8.370;2022-10-16T11:07:57;1.40;;;1.15;;
18857;SDS011;9558;50.178;8.370;2022-10-16T11:10:27;1.80;;;1.08;;
18857;SDS011;9558;50.178;8.370;2022-10-16T11:13:01;2.50;;;1.50;;
18857;SDS011;9558;50.178;8.370;2022-10-16T11:15:36;1.90;;;1.23;;
18857;SDS011;9558;50.178;8.370;2022-10-16T11:18:08;1.13;;;1.02;;
18857;SDS011;9558;50.178;8.370;2022-10-16T11:20:42;4.60;;;0.73;;
18857;SDS011;9558;50.178;8.370;2022-10-16T11:23:17;8.65;;;0.90;;
18857;SDS011;9558;50.178;8.370;2022-10-16T11:25:49;1.08;;;0.90;;
18857;SDS011;9558;50.178;8.370;2022-10-16T11:28:18;1.20;;;0.95;;
18857;SDS011;9558;50.178;8.370;2022-10-16T11:30:50;1.00;;;0.90;;
18857;SDS011;9558;50.178;8.370;2022-10-16T11:33:25;1.95;;;0.85;;
18857;SDS011;9558;50.178;8.370;2022-10-16T11:35:59;0.80;;;0.80;;
18857;SDS011;9558;50.178;8.370;2022-10-16T11:38:32;1.02;;;0.60;;
18857;SDS011;9558;50.178;8.370;2022-10-16T11:41:08;2.38;;;0.70;;
18857;SDS011;9558;50.178;8.370;2022-10-16T11:43:41;0.80;;;0.80;;
18857;SDS011;9558;50.178;8.370;2022-10-16T11:46:15;1.08;;;0.75;;
18857;SDS011;9558;50.178;8.370;2022-10-16T11:48:45;0.95;;;0.88;;
18857;SDS011;9558;50.178;8.370;2022-10-16T11:51:16;0.82;;;0.80;;
18857;SDS011;9558;50.178;8.370;2022-10-16T11:53:53;2.70;;;0.82;;
18857;SDS011;9558;50.178;8.370;2022-10-16T11:56:24;0.82;;;0.65;;
18857;SDS011;9558;50.178;8.370;2022-10-16T11:58:53;0.63;;;0.60;;
18857;SDS011;9558;50.178;8.370;2022-10-16T12:01:26;0.70;;;0.70;;
18857;SDS011;9558;50.178;8.370;2022-10-16T12:04:00;1.30;;;0.85;;
18857;SDS011;9558;50.178;8.370;2022-10-16T12:06:34;1.00;;;0.85;;
18857;SDS011;9558;50.178;8.370;2022-10-16T12:09:05;0.52;;;0.43;;
18857;SDS011;9558;50.178;8.370;2022-10-16T12:11:33;0.82;;;0.80;;
18857;SDS011;9558;50.178;8.370;2022-10-16T12:17:01;1.60;;;0.60;;
18857;SDS011;9558;50.178;8.370;2022-10-16T12:19:31;0.77;;;0.75;;
18857;SDS011;9558;50.178;8.370;2022-10-16T12:21:58;0.80;;;0.60;;
18857;SDS011;9558;50.178;8.370;2022-10-16T12:24:34;1.08;;;0.55;;
18857;SDS011;9558;50.178;8.370;2022-10-16T12:27:03;0.52;;;0.52;;
18857;SDS011;9558;50.178;8.370;2022-10-16T12:29:36;0.70;;;0.70;;
18857;SDS011;9558;50.178;8.370;2022-10-16T12:32:05;0.73;;;0.73;;
18857;SDS011;9558;50.178;8.370;2022-10-16T12:34:47;0.85;;;0.85;;
18857;SDS011;9558;50.178;8.370;2022-10-16T12:37:22;0.70;;;0.70;;
18857;SDS011;9558;50.178;8.370;2022-10-16T12:39:52;0.75;;;0.65;;
18857;SDS011;9558;50.178;8.370;2022-10-16T12:42:30;0.75;;;0.70;;
18857;SDS011;9558;50.178;8.370;2022-10-16T12:44:59;0.85;;;0.80;;
18857;SDS011;9558;50.178;8.370;2022-10-16T12:47:36;0.68;;;0.68;;
18857;SDS011;9558;50.178;8.370;2022-10-16T12:50:21;2.05;;;0.68;;
18857;SDS011;9558;50.178;8.370;2022-10-16T12:52:50;0.60;;;0.50;;
18857;SDS011;9558;50.178;8.370;2022-10-16T12:55:19;0.82;;;0.63;;
18857;SDS011;9558;50.178;8.370;2022-10-16T12:57:53;0.75;;;0.75;;
18857;SDS011;9558;50.178;8.370;2022-10-16T13:00:36;0.80;;;0.60;;
18857;SDS011;9558;50.178;8.370;2022-10-16T13:03:23;0.80;;;0.60;;
18857;SDS011;9558;50.178;8.370;2022-10-16T13:06:05;0.93;;;0.80;;
18857;SDS011;9558;50.178;8.370;2022-10-16T13:08:44;1.05;;;0.77;;
18857;SDS011;9558;50.178;8.370;2022-10-16T13:11:32;0.77;;;0.70;;
18857;SDS011;9558;50.178;8.370;2022-10-16T13:14:23;0.60;;;0.60;;
18857;SDS011;9558;50.178;8.370;2022-10-16T13:17:04;0.90;;;0.65;;
18857;SDS011;9558;50.178;8.370;2022-10-16T13:19:38;0.93;;;0.50;;
18857;SDS011;9558;50.178;8.370;2022-10-16T13:22:12;0.60;;;0.60;;
18857;SDS011;9558;50.178;8.370;2022-10-16T13:24:52;0.50;;;0.50;;
18857;SDS011;9558;50.178;8.370;2022-10-16T13:27:31;0.55;;;0.55;;
18857;SDS011;9558;50.178;8.370;2022-10-16T13:30:10;1.42;;;0.88;;
18857;SDS011;9558;50.178;8.370;2022-10-16T13:32:39;1.05;;;0.60;;
18857;SDS011;9558;50.178;8.370;2022-10-16T13:35:18;0.55;;;0.55;;
18857;SDS011;9558;50.178;8.370;2022-10-16T13:37:47;0.98;;;0.60;;
18857;SDS011;9558;50.178;8.370;2022-10-16T13:40:18;1.40;;;1.30;;
18857;SDS011;9558;50.178;8.370;2022-10-16T13:42:47;0.63;;;0.60;;
18857;SDS011;9558;50.178;8.370;2022-10-16T13:45:18;2.60;;;0.55;;
18857;SDS011;9558;50.178;8.370;2022-10-16T13:47:46;0.60;;;0.60;;
18857;SDS011;9558;50.178;8.370;2022-10-16T13:50:13;1.45;;;0.60;;
18857;SDS011;9558;50.178;8.370;2022-10-16T13:52:41;2.15;;;1.02;;
18857;SDS011;9558;50.178;8.370;2022-10-16T13:55:10;0.80;;;0.60;;
18857;SDS011;9558;50.178;8.370;2022-10-16T13:57:37;0.88;;;0.70;;
18857;SDS011;9558;50.178;8.370;2022-10-16T14:00:17;0.70;;;0.50;;
18857;SDS011;9558;50.178;8.370;2022-10-16T14:02:49;0.60;;;0.50;;
18857;SDS011;9558;50.178;8.370;2022-10-16T14:05:18;2.25;;;0.52;;
18857;SDS011;9558;50.178;8.370;2022-10-16T14:07:47;0.60;;;0.60;;
18857;SDS011;9558;50.178;8.370;2022-10-16T14:10:20;0.40;;;0.40;;
18857;SDS011;9558;50.178;8.370;2022-10-16T14:12:54;0.80;;;0.80;;
18857;SDS011;9558;50.178;8.370;2022-10-16T14:15:23;0.55;;;0.50;;
18857;SDS011;9558;50.178;8.370;2022-10-16T14:17:50;0.70;;;0.40;;
18857;SDS011;9558;50.178;8.370;2022-10-16T14:20:19;0.70;;;0.60;;
18857;SDS011;9558;50.178;8.370;2022-10-16T14:22:57;0.47;;;0.35;;
18857;SDS011;9558;50.178;8.370;2022-10-16T14:25:26;0.90;;;0.65;;
18857;SDS011;9558;50.178;8.370;2022-10-16T14:27:58;0.50;;;0.50;;
18857;SDS011;9558;50.178;8.370;2022-10-16T14:30:32;2.58;;;0.60;;
18857;SDS011;9558;50.178;8.370;2022-10-16T14:33:02;0.80;;;0.70;;
18857;SDS011;9558;50.178;8.370;2022-10-16T14:35:30;1.02;;;0.63;;
18857;SDS011;9558;50.178;8.370;2022-10-16T14:37:59;0.90;;;0.60;;
18857;SDS011;9558;50.178;8.370;2022-10-16T14:40:27;1.15;;;0.55;;
18857;SDS011;9558;50.178;8.370;2022-10-16T14:42:55;3.95;;;0.63;;
18857;SDS011;9558;50.178;8.370;2022-10-16T14:45:24;0.50;;;0.50;;
18857;SDS011;9558;50.178;8.370;2022-10-16T14:47:54;0.45;;;0.45;;
18857;SDS011;9558;50.178;8.370;2022-10-16T14:50:23;0.50;;;0.50;;
18857;SDS011;9558;50.178;8.370;2022-10-16T14:52:49;0.55;;;0.47;;
18857;SDS011;9558;50.178;8.370;2022-10-16T14:55:16;0.88;;;0.80;;
18857;SDS011;9558;50.178;8.370;2022-10-16T14:57:43;0.60;;;0.60;;
18857;SDS011;9558;50.178;8.370;2022-10-16T15:00:16;0.88;;;0.43;;
18857;SDS011;9558;50.178;8.370;2022-10-16T15:02:44;0.47;;;0.45;;
18857;SDS011;9558;50.178;8.370;2022-10-16T15:05:14;0.40;;;0.40;;
18857;SDS011;9558;50.178;8.370;2022-10-16T15:07:42;0.95;;;0.60;;
18857;SDS011;9558;50.178;8.370;2022-10-16T15:12:36;0.73;;;0.50;;
18857;SDS011;9558;50.178;8.370;2022-10-16T15:15:08;1.23;;;0.80;;
18857;SDS011;9558;50.178;8.370;2022-10-16T15:17:47;2.63;;;1.00;;
18857;SDS011;9558;50.178;8.370;2022-10-16T15:20:18;1.20;;;0.95;;
18857;SDS011;9558;50.178;8.370;2022-10-16T15:22:45;1.17;;;1.02;;
18857;SDS011;9558;50.178;8.370;2022-10-16T15:25:12;0.88;;;0.77;;
18857;SDS011;9558;50.178;8.370;2022-10-16T15:27:51;0.60;;;0.60;;
18857;SDS011;9558;50.178;8.370;2022-10-16T15:30:18;0.50;;;0.50;;
18857;SDS011;9558;50.178;8.370;2022-10-16T15:32:44;0.65;;;0.63;;
18857;SDS011;9558;50.178;8.370;2022-10-16T15:35:11;1.63;;;1.20;;
18857;SDS011;9558;50.178;8.370;2022-10-16T15:37:39;4.07;;;1.30;;